createdAt,value
2018-06-10T00:04:42.619Z,26.77
2018-06-10T00:09:36.610Z,30.90
2018-06-10T00:14:29.915Z,28.70
2018-06-10T00:19:23.239Z,30.77
2018-06-10T00:24:16.505Z,29.43
2018-06-10T00:29:15.494Z,28.87
2018-06-10T00:34:08.723Z,30.73
2018-06-10T00:39:02.002Z,32.35
2018-06-10T00:43:55.222Z,33.63
2018-06-10T00:48:48.482Z,33.67
2018-06-10T00:53:41.721Z,31.27
2018-06-10T00:58:34.933Z,34.18
2018-06-10T01:03:28.206Z,36.27
2018-06-10T01:08:21.436Z,35.13
2018-06-10T01:13:14.678Z,33.67
2018-06-10T01:18:08.154Z,28.25
2018-06-10T01:23:01.420Z,22.10
2018-06-10T01:27:54.646Z,19.53
2018-06-10T01:32:47.906Z,17.13
2018-06-10T01:37:41.162Z,15.47
2018-06-10T01:42:34.400Z,18.62
2018-06-10T01:47:27.671Z,18.13
2018-06-10T01:52:20.888Z,20.57
2018-06-10T01:57:14.170Z,17.23
2018-06-10T02:02:07.432Z,16.55
2018-06-10T02:07:00.715Z,17.30
2018-06-10T02:11:53.957Z,18.30
2018-06-10T02:16:47.113Z,19.20
2018-06-10T02:21:40.362Z,19.42
2018-06-10T02:26:33.621Z,20.13
2018-06-10T02:31:26.882Z,19.92
2018-06-10T02:36:20.177Z,19.50
2018-06-10T02:41:13.420Z,20.62
2018-06-10T02:46:06.660Z,20.43
2018-06-10T02:50:59.924Z,20.57
2018-06-10T02:55:53.994Z,23.20
2018-06-10T03:00:47.245Z,21.87
2018-06-10T03:05:40.502Z,22.07
2018-06-10T03:10:33.773Z,23.83
2018-06-10T03:15:26.945Z,25.57
2018-06-10T03:20:20.201Z,26.27
2018-06-10T03:25:13.445Z,27.62
2018-06-10T03:30:06.689Z,27.83
2018-06-10T03:34:59.923Z,26.80
2018-06-10T03:39:53.180Z,30.33
2018-06-10T03:44:46.426Z,29.92
2018-06-10T03:49:39.651Z,28.77
2018-06-10T03:54:32.919Z,31.25
2018-06-10T03:59:26.146Z,31.13
2018-06-10T04:04:19.389Z,33.25
2018-06-10T04:09:12.654Z,31.20
2018-06-10T04:14:05.898Z,33.98
2018-06-10T04:18:59.203Z,36.03
2018-06-10T04:23:52.531Z,35.30
2018-06-10T04:28:45.772Z,34.63
2018-06-10T04:33:39.007Z,33.30
2018-06-10T04:38:32.321Z,32.57
2018-06-10T04:43:25.458Z,22.07
2018-06-10T04:48:18.736Z,21.10
2018-06-10T04:53:11.995Z,20.07
2018-06-10T04:58:05.272Z,19.12
2018-06-10T05:02:58.523Z,17.17
2018-06-10T05:07:51.789Z,15.90
2018-06-10T05:12:45.029Z,15.07
2018-06-10T05:17:38.298Z,15.35
2018-06-10T05:22:31.534Z,15.53
2018-06-10T05:27:24.794Z,16.50
2018-06-10T05:32:18.032Z,15.70
2018-06-10T05:37:11.300Z,13.78
2018-06-10T05:42:04.995Z,16.03
2018-06-10T05:46:58.262Z,19.23
2018-06-10T05:51:51.446Z,20.17
2018-06-10T05:56:44.684Z,15.20
2018-06-10T06:01:37.923Z,18.92
2018-06-10T06:06:31.186Z,20.20
2018-06-10T06:11:24.440Z,23.92
2018-06-10T06:16:17.613Z,23.10
2018-06-10T06:21:10.767Z,26.42
2018-06-10T06:26:04.036Z,23.83
2018-06-10T06:30:57.315Z,24.15
2018-06-10T06:35:50.555Z,22.13
2018-06-10T06:40:43.794Z,22.48
2018-06-10T06:45:37.071Z,18.13
2018-06-10T06:50:30.334Z,21.57
2018-06-10T06:55:23.560Z,20.03
2018-06-10T07:00:16.865Z,17.95
2018-06-10T07:05:10.184Z,20.83
2018-06-10T07:10:04.366Z,20.92
2018-06-10T07:14:57.720Z,22.00
2018-06-10T07:19:50.851Z,22.70
2018-06-10T07:24:44.134Z,22.13
2018-06-10T07:29:37.420Z,20.30
2018-06-10T07:34:30.674Z,31.20
2018-06-10T07:39:23.977Z,46.70
2018-06-10T07:44:17.264Z,27.30
2018-06-10T07:49:10.605Z,28.37
2018-06-10T07:54:03.855Z,26.73
2018-06-10T07:58:57.377Z,30.77
2018-06-10T08:03:50.627Z,27.53
2018-06-10T08:08:43.922Z,31.37
2018-06-10T08:13:37.232Z,31.67
2018-06-10T08:18:30.432Z,34.45
2018-06-10T08:23:23.715Z,32.77
2018-06-10T08:28:17.007Z,29.63
2018-06-10T08:33:10.281Z,31.17
2018-06-10T08:38:03.523Z,32.93
2018-06-10T08:42:56.799Z,37.00
2018-06-10T08:47:50.055Z,36.23
2018-06-10T08:52:43.231Z,36.20
2018-06-10T08:57:36.393Z,38.67
2018-06-10T09:02:29.864Z,42.27
2018-06-10T09:07:23.134Z,41.23
2018-06-10T09:12:16.415Z,43.63
2018-06-10T09:17:09.738Z,39.37
2018-06-10T09:22:03.070Z,37.03
2018-06-10T09:26:56.302Z,37.60
2018-06-10T09:31:49.569Z,38.97
2018-06-10T09:36:42.836Z,36.83
2018-06-10T09:41:36.268Z,38.63
2018-06-10T09:46:29.616Z,33.70
2018-06-10T09:51:22.890Z,37.33
2018-06-10T09:56:16.169Z,38.57
2018-06-10T10:01:09.436Z,36.20
2018-06-10T10:06:02.828Z,39.70
2018-06-10T10:10:56.772Z,40.57
2018-06-10T10:15:50.049Z,42.47
2018-06-10T10:20:43.375Z,45.15
2018-06-10T10:25:36.727Z,44.23
2018-06-10T10:30:29.989Z,39.10
2018-06-10T10:35:23.258Z,41.13
2018-06-10T10:40:16.590Z,33.90
2018-06-10T10:45:09.889Z,38.13
2018-06-10T10:50:03.173Z,40.00
2018-06-10T10:54:56.323Z,37.80
2018-06-10T10:59:49.597Z,40.93
2018-06-10T11:04:42.873Z,43.68
2018-06-10T11:09:36.195Z,43.87
2018-06-10T11:14:29.445Z,49.23
2018-06-10T11:19:22.977Z,48.40
2018-06-10T11:24:17.210Z,48.97
2018-06-10T11:29:11.565Z,47.13
2018-06-10T11:34:04.804Z,51.50
2018-06-10T11:38:58.068Z,49.05
2018-06-10T11:43:51.283Z,47.60
2018-06-10T11:48:44.613Z,48.78
2018-06-10T11:53:37.983Z,51.77
2018-06-10T11:58:31.163Z,48.83
2018-06-10T12:03:24.443Z,46.67
2018-06-10T12:08:17.788Z,49.18
2018-06-10T12:13:11.052Z,49.77
2018-06-10T12:18:04.367Z,48.23
2018-06-10T12:22:57.537Z,48.30
2018-06-10T12:27:50.719Z,44.77
2018-06-10T12:32:44.357Z,48.60
2018-06-10T12:37:37.757Z,48.97
2018-06-10T12:42:31.072Z,47.88
2018-06-10T12:47:24.341Z,51.57
2018-06-10T12:52:17.619Z,47.60
2018-06-10T12:57:10.881Z,45.27
2018-06-10T13:02:04.153Z,46.30
2018-06-10T13:06:57.462Z,45.33
2018-06-10T13:11:50.771Z,40.52
2018-06-10T13:16:44.043Z,44.93
2018-06-10T13:21:37.427Z,43.40
2018-06-10T13:26:30.681Z,41.43
2018-06-10T13:31:23.980Z,37.07
2018-06-10T13:36:17.366Z,34.40
2018-06-10T13:41:10.634Z,31.73
2018-06-10T13:46:04.003Z,24.63
2018-06-10T13:50:57.296Z,20.80
2018-06-10T13:55:50.527Z,19.37
2018-06-10T14:00:43.792Z,21.47
2018-06-10T14:05:37.089Z,19.93
2018-06-10T14:10:30.358Z,17.73
2018-06-10T14:15:23.631Z,20.67
2018-06-10T14:20:16.903Z,19.17
2018-06-10T14:25:10.203Z,15.57
2018-06-10T14:30:03.579Z,13.80
2018-06-10T14:34:56.870Z,12.80
2018-06-10T14:39:50.160Z,13.77
2018-06-10T14:44:43.427Z,13.93
2018-06-10T14:49:36.707Z,12.87
2018-06-10T14:54:29.978Z,16.00
2018-06-10T14:59:23.266Z,15.10
2018-06-10T15:04:16.541Z,16.60
2018-06-10T15:09:09.852Z,13.17
2018-06-10T15:14:03.376Z,13.35
2018-06-10T15:18:56.650Z,12.10
2018-06-10T15:23:49.921Z,13.73
2018-06-10T15:28:43.245Z,14.20
2018-06-10T15:33:36.497Z,14.60
2018-06-10T15:38:29.659Z,15.10
2018-06-10T15:43:22.927Z,13.57
2018-06-10T15:48:16.213Z,14.20
2018-06-10T15:53:09.411Z,14.67
2018-06-10T15:58:02.704Z,13.83
2018-06-10T16:02:55.981Z,13.90
2018-06-10T16:07:49.287Z,15.43
2018-06-10T16:12:42.540Z,14.10
2018-06-10T16:17:35.800Z,16.17
2018-06-10T16:22:29.112Z,15.33
2018-06-10T16:27:23.266Z,17.45
2018-06-10T16:32:16.518Z,13.67
2018-06-10T16:37:09.672Z,17.57
2018-06-10T16:42:02.924Z,17.87
2018-06-10T16:46:56.191Z,16.62
2018-06-10T16:51:49.432Z,16.20
2018-06-10T16:56:42.692Z,16.70
2018-06-10T17:01:35.837Z,14.50
2018-06-10T17:06:29.096Z,16.50
2018-06-10T17:11:22.380Z,16.57
2018-06-10T17:16:15.676Z,16.95
2018-06-10T17:21:09.839Z,15.60
2018-06-10T17:26:03.178Z,16.60
2018-06-10T17:30:56.501Z,17.57
2018-06-10T17:35:49.730Z,15.40
2018-06-10T17:40:42.985Z,15.17
2018-06-10T17:45:36.263Z,14.67
2018-06-10T17:50:29.545Z,17.00
2018-06-10T17:55:22.810Z,16.43
2018-06-10T18:00:16.237Z,16.65
2018-06-10T18:05:09.539Z,15.07
2018-06-10T18:10:02.799Z,15.48
2018-06-10T18:14:56.057Z,15.60
2018-06-10T18:19:49.354Z,17.52
2018-06-10T18:24:42.639Z,16.93
2018-06-10T18:29:35.871Z,16.12
2018-06-10T18:34:29.139Z,16.53
2018-06-10T18:39:22.416Z,16.00
2018-06-10T18:44:15.662Z,15.50
2018-06-10T18:49:08.899Z,15.88
2018-06-10T18:54:02.697Z,16.10
2018-06-10T18:58:56.245Z,17.33
2018-06-10T19:03:49.584Z,16.07
2018-06-10T19:08:42.877Z,16.25
2018-06-10T19:13:36.153Z,16.60
2018-06-10T19:18:30.618Z,15.78
2018-06-10T19:23:24.411Z,15.07
2018-06-10T19:28:17.578Z,14.50
2018-06-10T19:33:11.079Z,15.07
2018-06-10T19:38:04.419Z,14.50
2018-06-10T19:42:57.815Z,14.00
2018-06-10T19:47:51.159Z,13.68
2018-06-10T19:52:44.497Z,14.83
2018-06-10T19:57:37.742Z,14.30
2018-06-10T20:02:31.110Z,13.93
2018-06-10T20:07:24.487Z,13.80
2018-06-10T20:12:18.911Z,14.17
2018-06-10T20:17:12.229Z,14.40
2018-06-10T20:22:05.504Z,13.90
2018-06-10T20:26:58.842Z,13.83
2018-06-10T20:31:52.180Z,14.40
2018-06-10T20:36:46.137Z,13.33
2018-06-10T20:41:40.287Z,13.97
2018-06-10T20:46:33.542Z,14.00
2018-06-10T20:51:26.873Z,14.83
2018-06-10T20:56:20.232Z,14.50
2018-06-10T21:01:13.421Z,14.37
2018-06-10T21:06:06.667Z,15.57
2018-06-10T21:11:00.004Z,15.80
2018-06-10T21:15:53.308Z,15.05
2018-06-10T21:20:46.589Z,14.53
2018-06-10T21:25:39.980Z,15.77
2018-06-10T21:30:33.141Z,16.10
2018-06-10T21:35:26.377Z,15.73
2018-06-10T21:40:19.721Z,15.15
2018-06-10T21:45:13.329Z,15.27
2018-06-10T21:50:06.634Z,14.77
2018-06-10T21:55:00.016Z,13.88
2018-06-10T21:59:53.325Z,14.60
2018-06-10T22:04:46.671Z,14.90
2018-06-10T22:09:40.121Z,14.97
2018-06-10T22:14:33.366Z,15.10
2018-06-10T22:19:26.733Z,15.03
2018-06-10T22:24:20.052Z,15.07
2018-06-10T22:29:13.350Z,14.93
2018-06-10T22:34:06.767Z,14.97
2018-06-10T22:39:02.304Z,15.53
2018-06-10T22:43:55.576Z,15.23
2018-06-10T22:48:48.865Z,14.90
2018-06-10T22:54:36.753Z,16.27
2018-06-10T22:59:30.063Z,16.03
2018-06-10T23:04:23.614Z,15.35
2018-06-10T23:09:16.982Z,15.83
2018-06-10T23:14:10.342Z,16.70
2018-06-10T23:19:03.613Z,17.23
2018-06-10T23:23:56.889Z,17.40
2018-06-10T23:28:50.172Z,16.67
2018-06-10T23:33:43.446Z,16.93
2018-06-10T23:38:36.710Z,18.17
2018-06-10T23:43:29.976Z,17.10
2018-06-10T23:48:23.916Z,17.23
2018-06-10T23:53:17.240Z,18.40
2018-06-10T23:58:10.535Z,16.73
